Time;durP1;ratioP1;P1;durP2;ratioP2;P2;SDS_P1;SDS_P2;PMS_P1;PMS_P2;Temp;Humidity;BMP_temperature;BMP_pressure;BME280_temperature;BME280_humidity;BME280_pressure;Samples;Min_cycle;Max_cycle;Signal;HPM_P1;HPM_P2
2023/09/12 00:02:05;;;;;;;34.13;29.05;;;19.50;92.50;;;;;;4961947;28;20062;-80
2023/09/12 00:04:31;;;;;;;38.42;31.63;;;19.50;92.60;;;;;;4947756;28;20760;-80
2023/09/12 00:06:57;;;;;;;42.30;32.70;;;19.50;92.70;;;;;;4943417;28;20051;-79
2023/09/12 00:09:22;;;;;;;38.20;31.13;;;19.50;92.60;;;;;;4941626;28;20041;-80
2023/09/12 00:11:48;;;;;;;36.72;29.05;;;19.50;92.70;;;;;;4942060;28;20047;-80
2023/09/12 00:14:17;;;;;;;34.60;28.55;;;19.50;92.70;;;;;;4961359;28;20035;-80
2023/09/12 00:16:43;;;;;;;35.28;29.52;;;19.40;92.70;;;;;;4959159;28;20058;-79
2023/09/12 00:19:09;;;;;;;36.13;28.67;;;19.40;92.70;;;;;;4950180;28;20689;-80
2023/09/12 00:21:35;;;;;;;30.00;26.48;;;19.40;92.60;;;;;;4942000;28;20119;-80
2023/09/12 00:24:00;;;;;;;33.92;28.77;;;19.40;92.60;;;;;;4939664;28;20034;-80
2023/09/12 00:26:26;;;;;;;32.67;28.85;;;19.40;92.70;;;;;;4938782;28;20677;-80
2023/09/12 00:28:52;;;;;;;35.42;30.42;;;19.40;92.70;;;;;;4960585;28;20110;-80
2023/09/12 00:31:18;;;;;;;37.35;30.85;;;19.40;92.60;;;;;;4966123;28;20452;-80
2023/09/12 00:33:44;;;;;;;38.20;31.55;;;19.50;92.50;;;;;;4947003;28;20035;-79
2023/09/12 00:36:09;;;;;;;38.88;33.72;;;19.40;92.40;;;;;;4939304;28;20040;-81
2023/09/12 00:38:35;;;;;;;38.28;33.70;;;19.40;92.50;;;;;;4937188;28;20027;-80
2023/09/12 00:41:00;;;;;;;38.38;32.92;;;19.50;92.60;;;;;;4939601;28;20107;-81
2023/09/12 00:43:26;;;;;;;35.58;31.50;;;19.50;92.70;;;;;;4941652;28;20250;-80
2023/09/12 00:45:52;;;;;;;37.38;31.92;;;19.50;92.70;;;;;;4942827;28;20063;-81
2023/09/12 00:48:19;;;;;;;39.70;31.88;;;19.40;92.60;;;;;;4943485;28;20035;-80
2023/09/12 00:50:47;;;;;;;36.17;30.85;;;19.40;92.60;;;;;;4951473;28;20027;-80
2023/09/12 00:53:13;;;;;;;41.42;32.63;;;19.40;92.60;;;;;;4931516;28;20101;-80
2023/09/12 00:55:45;;;;;;;36.22;30.02;;;19.40;92.60;;;;;;4942419;28;20549;-80
2023/09/12 00:58:12;;;;;;;32.85;28.27;;;19.40;92.70;;;;;;4943005;28;20077;-80
2023/09/12 01:00:37;;;;;;;36.05;29.30;;;19.50;92.80;;;;;;4942426;28;20038;-80
2023/09/12 01:03:04;;;;;;;39.35;29.50;;;19.40;92.70;;;;;;4943113;28;20043;-80
2023/09/12 01:05:29;;;;;;;37.30;30.00;;;19.40;92.70;;;;;;4946471;28;20034;-79
2023/09/12 01:07:56;;;;;;;35.28;29.08;;;19.40;92.70;;;;;;4947799;28;20450;-80
2023/09/12 01:10:22;;;;;;;36.70;30.55;;;19.40;92.80;;;;;;4941013;28;20031;-80
2023/09/12 01:12:47;;;;;;;36.25;28.45;;;19.40;92.90;;;;;;4944474;28;20097;-80
2023/09/12 01:15:14;;;;;;;36.92;29.70;;;19.40;92.90;;;;;;4943386;28;20410;-79
2023/09/12 01:17:43;;;;;;;40.00;31.63;;;19.40;92.90;;;;;;4946508;28;20176;-80
2023/09/12 01:20:24;;;;;;;36.10;29.27;;;19.40;92.90;;;;;;4958066;28;20541;-81
2023/09/12 01:23:24;;;;;;;36.17;28.40;;;19.40;93.00;;;;;;4943375;28;20070;-80
2023/09/12 01:26:28;;;;;;;31.40;25.65;;;19.40;93.00;;;;;;4945710;28;20114;-80
2023/09/12 01:28:57;;;;;;;35.33;29.55;;;19.40;93.00;;;;;;4952592;28;20066;-80
2023/09/12 01:31:24;;;;;;;32.47;27.05;;;19.50;92.80;;;;;;4961605;28;20034;-81
2023/09/12 01:33:54;;;;;;;32.72;28.00;;;19.50;92.80;;;;;;4961144;28;20664;-79
2023/09/12 01:36:19;;;;;;;31.92;27.27;;;19.50;92.70;;;;;;4961243;28;20026;-80
2023/09/12 01:38:45;;;;;;;32.90;27.40;;;19.50;92.60;;;;;;4961896;28;20404;-80
2023/09/12 01:41:11;;;;;;;37.20;28.63;;;19.50;92.70;;;;;;4961101;28;20023;-80
2023/09/12 01:43:39;;;;;;;34.33;26.85;;;19.50;92.60;;;;;;4962909;28;20031;-80
2023/09/12 01:46:05;;;;;;;32.80;26.05;;;19.50;92.60;;;;;;4959248;28;20026;-79
2023/09/12 01:48:34;;;;;;;32.42;25.70;;;19.50;92.50;;;;;;4958481;28;20112;-80
2023/09/12 01:51:04;;;;;;;33.40;26.63;;;19.40;92.60;;;;;;4960587;28;20035;-80
2023/09/12 01:53:32;;;;;;;35.40;27.60;;;19.40;92.60;;;;;;4946140;28;20039;-80
2023/09/12 01:55:59;;;;;;;36.50;28.23;;;19.40;92.60;;;;;;4946416;28;20035;-80
2023/09/12 01:58:26;;;;;;;29.55;24.83;;;19.40;92.70;;;;;;4949864;28;20145;-80
2023/09/12 02:00:52;;;;;;;35.03;26.75;;;19.40;92.60;;;;;;4949402;28;20589;-80
2023/09/12 02:03:17;;;;;;;35.20;27.88;;;19.40;92.50;;;;;;4960346;28;20070;-80
2023/09/12 02:05:43;;;;;;;31.80;26.50;;;19.40;92.50;;;;;;4958826;28;20076;-80
2023/09/12 02:08:09;;;;;;;34.35;26.48;;;19.40;92.60;;;;;;5018954;28;20040;-80
2023/09/12 02:10:35;;;;;;;31.33;26.95;;;19.40;92.40;;;;;;5035168;28;20040;-79
2023/09/12 02:13:00;;;;;;;32.33;26.80;;;19.40;92.20;;;;;;4979970;28;20058;-80
2023/09/12 02:15:26;;;;;;;35.75;28.05;;;19.40;92.10;;;;;;4935385;28;21027;-80
2023/09/12 02:17:52;;;;;;;30.20;25.25;;;19.30;92.20;;;;;;4940307;28;20077;-79
2023/09/12 02:20:19;;;;;;;33.15;25.88;;;19.40;92.30;;;;;;4942438;28;20032;-81
2023/09/12 02:22:45;;;;;;;34.05;25.88;;;19.40;92.40;;;;;;4934333;28;20067;-79
2023/09/12 02:25:10;;;;;;;29.75;25.15;;;19.40;92.40;;;;;;4943117;28;20047;-80
2023/09/12 02:27:36;;;;;;;36.63;28.83;;;19.30;92.30;;;;;;4941911;28;20054;-80
2023/09/12 02:30:02;;;;;;;37.33;28.27;;;19.40;92.40;;;;;;4961683;28;20072;-79
2023/09/12 02:32:29;;;;;;;34.05;27.73;;;19.40;92.40;;;;;;4954483;28;20031;-80
2023/09/12 02:34:56;;;;;;;34.83;26.77;;;19.30;92.40;;;;;;4941946;28;20400;-79
2023/09/12 02:37:22;;;;;;;35.47;26.90;;;19.30;92.50;;;;;;4947415;28;20031;-79
2023/09/12 02:39:48;;;;;;;38.42;28.13;;;19.40;92.30;;;;;;4963456;28;20034;-80
2023/09/12 02:42:14;;;;;;;29.85;25.30;;;19.30;92.30;;;;;;4984370;28;20130;-79
2023/09/12 02:44:39;;;;;;;30.23;24.17;;;19.40;92.20;;;;;;4959130;28;20096;-80
2023/09/12 02:47:05;;;;;;;32.03;26.33;;;19.30;92.20;;;;;;4962701;28;20039;-80
2023/09/12 02:49:31;;;;;;;40.80;29.17;;;19.30;92.20;;;;;;4961177;28;20122;-79
2023/09/12 02:51:56;;;;;;;32.85;26.13;;;19.30;92.30;;;;;;4961107;28;20043;-80
2023/09/12 02:54:22;;;;;;;31.45;24.60;;;19.30;92.30;;;;;;4956191;28;20076;-79
2023/09/12 02:56:48;;;;;;;34.55;27.00;;;19.30;92.30;;;;;;4960257;28;20440;-80
2023/09/12 02:59:13;;;;;;;32.30;25.85;;;19.30;92.20;;;;;;4958858;28;20297;-80
2023/09/12 03:01:39;;;;;;;31.27;26.05;;;19.30;92.30;;;;;;4962683;28;20136;-79
2023/09/12 03:04:05;;;;;;;34.58;27.58;;;19.30;92.30;;;;;;4963723;28;20058;-80
2023/09/12 03:06:31;;;;;;;38.20;27.70;;;19.30;92.20;;;;;;4959771;28;20440;-79
2023/09/12 03:08:56;;;;;;;36.65;27.55;;;19.30;92.30;;;;;;4960656;28;20055;-80
2023/09/12 03:11:22;;;;;;;33.05;25.75;;;19.40;92.30;;;;;;4960296;28;20035;-81
2023/09/12 03:13:48;;;;;;;35.75;28.60;;;19.40;92.30;;;;;;4961825;28;20042;-80
2023/09/12 03:16:14;;;;;;;37.90;28.80;;;19.30;92.10;;;;;;4958634;28;20030;-80
2023/09/12 03:18:40;;;;;;;33.67;25.40;;;19.30;92.20;;;;;;4938001;28;20119;-80
2023/09/12 03:21:06;;;;;;;31.17;25.48;;;19.30;92.20;;;;;;4950267;28;20039;-80
2023/09/12 03:23:32;;;;;;;34.30;25.50;;;19.30;92.20;;;;;;4958943;28;21252;-80
2023/09/12 03:26:05;;;;;;;32.08;25.00;;;19.30;92.20;;;;;;4962140;28;20035;-79
2023/09/12 03:28:32;;;;;;;35.05;26.00;;;19.20;92.20;;;;;;4949119;28;20043;-79
2023/09/12 03:31:07;;;;;;;35.38;27.58;;;19.10;92.30;;;;;;4939473;28;20847;-79
2023/09/12 03:33:32;;;;;;;36.83;26.38;;;19.20;92.40;;;;;;4946096;28;20039;-80
2023/09/12 03:35:58;;;;;;;32.67;25.20;;;19.10;92.50;;;;;;4946075;28;20118;-79
2023/09/12 03:38:24;;;;;;;36.10;25.40;;;19.10;92.50;;;;;;4946347;28;20051;-80
2023/09/12 03:40:50;;;;;;;30.70;23.55;;;19.10;92.40;;;;;;4965856;28;20034;-80
2023/09/12 03:43:15;;;;;;;33.30;24.80;;;19.10;92.50;;;;;;4985961;28;20030;-80
2023/09/12 03:45:41;;;;;;;35.92;26.85;;;19.10;92.50;;;;;;4988697;28;20082;-80
2023/09/12 03:48:07;;;;;;;31.75;25.27;;;19.10;92.40;;;;;;4986544;28;20103;-80
2023/09/12 03:50:32;;;;;;;35.38;25.77;;;19.10;92.50;;;;;;4969405;28;20041;-80
2023/09/12 03:52:58;;;;;;;38.10;26.48;;;19.10;92.40;;;;;;4966869;28;20035;-80
2023/09/12 03:55:23;;;;;;;34.28;25.17;;;19.10;92.40;;;;;;4965817;28;20035;-79
2023/09/12 03:57:49;;;;;;;31.52;23.92;;;19.10;92.40;;;;;;4964928;28;20146;-80
2023/09/12 04:00:15;;;;;;;32.53;24.63;;;19.10;92.40;;;;;;4993015;28;20122;-79
2023/09/12 04:02:41;;;;;;;35.45;25.83;;;19.10;92.40;;;;;;4962178;28;20933;-80
2023/09/12 04:05:07;;;;;;;29.80;23.15;;;19.00;92.40;;;;;;4968728;28;20084;-81
2023/09/12 04:07:33;;;;;;;31.30;24.80;;;19.00;92.30;;;;;;4969341;28;20438;-80
2023/09/12 04:09:58;;;;;;;29.95;23.17;;;19.00;92.20;;;;;;4941927;28;20062;-80
2023/09/12 04:12:24;;;;;;;31.83;25.33;;;19.00;92.10;;;;;;4945851;28;20143;-80
2023/09/12 04:14:54;;;;;;;31.50;25.30;;;18.90;92.10;;;;;;4945986;28;20027;-80
2023/09/12 04:17:20;;;;;;;31.65;25.33;;;18.90;92.20;;;;;;4953430;28;20038;-80
2023/09/12 04:19:46;;;;;;;31.98;24.60;;;18.80;92.30;;;;;;4958603;28;20084;-81
2023/09/12 04:22:11;;;;;;;29.75;23.85;;;18.80;92.20;;;;;;4963222;28;20547;-81
2023/09/12 04:24:37;;;;;;;31.42;24.08;;;18.70;92.20;;;;;;4960991;28;20893;-81
2023/09/12 04:27:03;;;;;;;28.95;24.15;;;18.70;92.30;;;;;;4962459;28;20038;-80
2023/09/12 04:29:29;;;;;;;30.27;23.77;;;18.70;92.40;;;;;;4962443;28;20039;-80
2023/09/12 04:31:59;;;;;;;33.25;24.73;;;18.70;92.50;;;;;;4958489;28;20687;-83
2023/09/12 04:34:25;;;;;;;33.30;25.58;;;18.70;92.60;;;;;;4961287;28;20026;-83
2023/09/12 04:36:52;;;;;;;30.73;24.88;;;18.60;92.60;;;;;;4959014;28;20112;-83
2023/09/12 04:39:17;;;;;;;30.60;23.38;;;18.60;92.70;;;;;;4958491;28;20035;-82
2023/09/12 04:41:43;;;;;;;30.45;22.95;;;18.60;92.30;;;;;;4960952;28;20073;-83
2023/09/12 04:44:11;;;;;;;34.00;24.70;;;18.60;92.30;;;;;;4962130;28;20136;-83
2023/09/12 04:46:37;;;;;;;28.63;23.83;;;18.50;92.30;;;;;;4961714;28;20025;-82
2023/09/12 04:49:03;;;;;;;31.02;24.05;;;18.40;92.40;;;;;;4950147;28;20027;-83
2023/09/12 04:51:29;;;;;;;32.08;24.60;;;18.50;92.50;;;;;;4949337;28;20035;-83
2023/09/12 04:53:54;;;;;;;29.55;24.27;;;18.50;92.40;;;;;;4948171;28;20035;-83
2023/09/12 04:56:20;;;;;;;32.33;24.77;;;18.40;92.30;;;;;;4949624;28;20026;-82
2023/09/12 04:58:46;;;;;;;34.72;26.60;;;18.30;92.30;;;;;;4943840;28;20039;-83
2023/09/12 05:01:12;;;;;;;31.30;23.55;;;18.30;92.50;;;;;;4940266;28;20031;-83
2023/09/12 05:03:38;;;;;;;34.35;25.20;;;18.30;92.60;;;;;;4967745;28;20035;-83
2023/09/12 05:06:03;;;;;;;31.38;25.40;;;18.30;92.70;;;;;;4963946;28;20062;-82
2023/09/12 05:08:30;;;;;;;30.10;23.42;;;18.30;92.60;;;;;;4953266;28;20043;-82
2023/09/12 05:10:55;;;;;;;30.58;24.52;;;18.30;92.60;;;;;;4949146;28;20026;-81
2023/09/12 05:13:21;;;;;;;32.40;25.75;;;18.30;92.70;;;;;;4967029;28;20648;-81
2023/09/12 05:15:47;;;;;;;33.83;24.75;;;18.30;92.80;;;;;;4999966;28;20023;-83
2023/09/12 05:18:14;;;;;;;33.25;24.70;;;18.30;92.70;;;;;;4943469;28;20048;-83
2023/09/12 05:20:39;;;;;;;33.50;25.67;;;18.40;92.70;;;;;;4946543;28;20110;-81
2023/09/12 05:23:05;;;;;;;29.75;23.83;;;18.40;92.60;;;;;;4937616;28;20114;-84
2023/09/12 05:25:31;;;;;;;33.97;26.58;;;18.40;92.60;;;;;;4941736;28;20110;-83
2023/09/12 05:27:56;;;;;;;35.03;28.02;;;18.40;92.70;;;;;;4948407;28;20228;-83
2023/09/12 05:30:22;;;;;;;43.15;31.80;;;18.40;92.60;;;;;;4960534;28;20662;-83
2023/09/12 05:32:48;;;;;;;46.33;31.42;;;18.50;92.60;;;;;;4962215;28;20042;-80
2023/09/12 05:35:13;;;;;;;42.13;30.48;;;18.50;92.70;;;;;;4951120;28;20031;-82
2023/09/12 05:37:39;;;;;;;40.28;29.58;;;18.50;92.80;;;;;;4949093;28;20086;-83
2023/09/12 05:40:06;;;;;;;46.25;31.58;;;18.50;92.90;;;;;;4962459;28;20153;-82
2023/09/12 05:42:31;;;;;;;53.15;34.38;;;18.50;93.00;;;;;;4960797;28;20046;-82
2023/09/12 05:44:57;;;;;;;60.20;37.20;;;18.50;93.00;;;;;;4959033;28;20103;-81
2023/09/12 05:47:23;;;;;;;58.22;37.63;;;18.60;92.90;;;;;;4958567;28;20114;-80
2023/09/12 05:49:49;;;;;;;57.35;37.85;;;18.60;92.70;;;;;;4956527;28;20035;-82
2023/09/12 05:52:15;;;;;;;65.13;39.35;;;18.60;92.50;;;;;;4957549;28;20039;-83
2023/09/12 05:54:41;;;;;;;57.63;38.15;;;18.60;92.40;;;;;;4961431;28;20392;-83
2023/09/12 05:57:07;;;;;;;66.72;41.58;;;18.70;92.60;;;;;;4957229;28;20523;-82
2023/09/12 05:59:37;;;;;;;68.50;41.60;;;18.70;92.60;;;;;;4958290;28;20042;-82
2023/09/12 06:02:04;;;;;;;69.43;41.78;;;18.70;92.60;;;;;;4960341;28;20065;-83
2023/09/12 06:04:30;;;;;;;64.72;41.65;;;18.80;92.70;;;;;;4963550;28;20071;-82
2023/09/12 06:06:55;;;;;;;58.92;37.50;;;18.80;92.60;;;;;;4967651;28;20043;-82
2023/09/12 06:09:21;;;;;;;60.95;37.08;;;18.80;92.50;;;;;;4959857;28;20035;-83
2023/09/12 06:11:47;;;;;;;65.07;38.38;;;18.80;92.50;;;;;;4966333;28;20554;-81
2023/09/12 06:14:12;;;;;;;62.30;39.83;;;18.80;92.40;;;;;;4965280;28;20030;-83
2023/09/12 06:16:38;;;;;;;61.15;37.47;;;18.80;92.60;;;;;;4959839;28;20041;-75
2023/09/12 06:19:04;;;;;;;75.63;42.67;;;18.80;92.80;;;;;;4962676;28;20023;-76
2023/09/12 06:21:29;;;;;;;83.18;45.42;;;18.90;92.70;;;;;;4958426;28;20049;-75
2023/09/12 06:24:11;;;;;;;80.88;44.20;;;18.90;92.60;;;;;;4956441;28;20035;-77
2023/09/12 06:26:38;;;;;;;78.35;45.15;;;18.90;92.50;;;;;;4957678;28;20050;-76
2023/09/12 06:29:03;;;;;;;78.00;45.15;;;18.90;92.40;;;;;;4959215;28;20043;-77
2023/09/12 06:31:29;;;;;;;85.25;49.42;;;18.90;92.30;;;;;;4955653;28;20081;-75
2023/09/12 06:33:56;;;;;;;73.15;45.25;;;19.00;92.40;;;;;;4959520;28;20041;-76
2023/09/12 06:36:21;;;;;;;75.00;46.30;;;19.00;92.10;;;;;;4964335;28;20023;-75
2023/09/12 06:38:48;;;;;;;72.10;47.40;;;19.00;92.00;;;;;;4958522;28;20047;-73
2023/09/12 06:41:13;;;;;;;69.55;45.10;;;19.00;92.10;;;;;;4961835;28;20029;-73
2023/09/12 06:43:39;;;;;;;72.00;47.22;;;19.10;92.20;;;;;;4950468;28;20039;-74
2023/09/12 06:46:05;;;;;;;70.03;44.95;;;19.10;92.20;;;;;;4955327;28;20035;-74
2023/09/12 06:48:30;;;;;;;67.28;44.88;;;19.10;92.20;;;;;;4958655;28;20692;-73
2023/09/12 06:50:56;;;;;;;70.70;47.53;;;19.10;92.00;;;;;;4956073;28;20465;-73
2023/09/12 06:53:22;;;;;;;64.90;42.00;;;19.20;92.00;;;;;;4949035;28;20397;-78
2023/09/12 06:55:47;;;;;;;65.90;45.80;;;19.30;92.10;;;;;;4950314;28;20057;-76
2023/09/12 06:58:13;;;;;;;67.30;45.53;;;19.30;91.80;;;;;;4959096;28;20034;-77
2023/09/12 07:00:38;;;;;;;70.07;46.33;;;19.30;91.80;;;;;;4951756;28;20027;-74
2023/09/12 07:03:04;;;;;;;65.78;44.45;;;19.40;91.80;;;;;;4941663;28;20399;-76
2023/09/12 07:05:30;;;;;;;64.95;43.60;;;19.40;91.90;;;;;;4954999;28;20037;-76
2023/09/12 07:07:56;;;;;;;57.65;42.13;;;19.50;91.60;;;;;;4931305;28;20331;-75
2023/09/12 07:10:22;;;;;;;60.08;43.58;;;19.50;91.00;;;;;;4980931;28;20664;-77
2023/09/12 07:12:47;;;;;;;59.50;42.55;;;19.50;91.00;;;;;;4946653;28;20520;-73
2023/09/12 07:15:13;;;;;;;57.22;40.70;;;19.50;91.00;;;;;;4953030;28;20040;-75
2023/09/12 07:17:39;;;;;;;58.58;41.20;;;19.50;90.70;;;;;;4951111;28;20066;-77
2023/09/12 07:20:11;;;;;;;59.47;41.65;;;19.50;91.00;;;;;;4929205;28;20039;-74
2023/09/12 07:22:38;;;;;;;57.75;39.75;;;19.60;90.90;;;;;;4931395;28;20420;-77
2023/09/12 07:25:04;;;;;;;54.30;39.03;;;19.60;90.80;;;;;;4930985;28;20104;-75
2023/09/12 07:27:29;;;;;;;58.33;40.08;;;19.60;90.50;;;;;;4934317;28;20139;-74
2023/09/12 07:29:55;;;;;;;57.50;40.00;;;19.60;90.40;;;;;;4944804;28;20027;-74
2023/09/12 07:32:21;;;;;;;58.90;39.63;;;19.60;90.30;;;;;;4931447;28;20100;-73
2023/09/12 07:34:48;;;;;;;58.78;40.17;;;19.70;90.40;;;;;;4941082;28;20062;-75
2023/09/12 07:37:14;;;;;;;57.50;38.30;;;19.60;90.20;;;;;;4954412;28;20040;-73
2023/09/12 07:39:40;;;;;;;56.30;38.20;;;19.60;90.40;;;;;;4941893;28;20034;-76
2023/09/12 07:42:05;;;;;;;55.17;36.92;;;19.50;90.40;;;;;;4938672;28;20059;-73
2023/09/12 07:44:31;;;;;;;52.05;35.55;;;19.50;90.30;;;;;;4962790;28;20146;-73
2023/09/12 07:46:57;;;;;;;51.25;35.47;;;19.50;90.30;;;;;;4950167;28;20125;-73
2023/09/12 07:49:25;;;;;;;48.05;35.05;;;19.50;90.60;;;;;;4937779;28;20085;-73
2023/09/12 07:51:51;;;;;;;50.05;35.17;;;19.50;90.70;;;;;;4941718;28;20118;-73
2023/09/12 07:54:17;;;;;;;52.78;36.53;;;19.50;90.60;;;;;;4943559;28;20110;-74
2023/09/12 07:56:43;;;;;;;53.28;36.10;;;19.60;90.80;;;;;;4945303;28;20691;-74
2023/09/12 07:59:10;;;;;;;56.10;37.00;;;19.80;90.20;;;;;;4938078;28;20039;-73
2023/09/12 08:01:36;;;;;;;54.67;37.05;;;19.80;90.10;;;;;;4942074;28;20072;-73
2023/09/12 08:04:02;;;;;;;52.42;35.92;;;19.80;89.70;;;;;;4943040;28;20035;-72
2023/09/12 08:06:30;;;;;;;50.75;35.88;;;19.80;89.70;;;;;;4944194;28;20417;-73
2023/09/12 08:08:56;;;;;;;64.03;40.55;;;19.70;90.00;;;;;;4941471;28;20086;-73
2023/09/12 08:11:21;;;;;;;58.10;38.22;;;19.70;90.40;;;;;;4942256;28;20134;-73
2023/09/12 08:13:49;;;;;;;59.63;40.33;;;19.90;90.30;;;;;;4946407;28;20043;-73
2023/09/12 08:16:15;;;;;;;61.97;41.15;;;20.00;90.00;;;;;;4949952;28;20023;-73
2023/09/12 08:18:41;;;;;;;54.10;37.10;;;20.10;90.10;;;;;;4943887;28;20031;-73
2023/09/12 08:21:07;;;;;;;54.85;36.75;;;20.10;89.30;;;;;;4944643;28;20062;-75
2023/09/12 08:23:33;;;;;;;60.20;38.22;;;20.20;88.90;;;;;;4957652;28;20031;-74
2023/09/12 08:25:58;;;;;;;56.33;38.03;;;20.10;89.20;;;;;;4965993;28;20033;-73
2023/09/12 08:28:24;;;;;;;57.35;36.10;;;20.30;89.00;;;;;;4964639;28;20608;-74
2023/09/12 08:30:50;;;;;;;55.13;35.97;;;20.30;89.10;;;;;;4967618;28;20027;-74
2023/09/12 08:33:15;;;;;;;62.33;38.92;;;20.30;88.80;;;;;;4965965;28;20507;-74
2023/09/12 08:35:41;;;;;;;56.55;38.33;;;20.40;88.80;;;;;;4965793;28;20468;-75
2023/09/12 08:38:08;;;;;;;61.25;38.83;;;20.40;88.50;;;;;;4964113;28;20761;-75
2023/09/12 08:40:35;;;;;;;54.05;35.83;;;20.40;88.90;;;;;;4968576;28;20027;-73
2023/09/12 08:43:01;;;;;;;56.53;37.10;;;20.40;88.80;;;;;;4967427;28;20035;-74
2023/09/12 08:45:26;;;;;;;55.53;36.45;;;20.40;88.60;;;;;;4963744;28;20039;-74
2023/09/12 08:47:55;;;;;;;54.10;38.13;;;20.50;88.90;;;;;;4955785;28;20040;-73
2023/09/12 08:50:23;;;;;;;54.10;37.50;;;20.50;88.80;;;;;;4946962;28;20051;-73
2023/09/12 08:52:49;;;;;;;56.10;37.50;;;20.60;88.60;;;;;;4944665;28;20118;-75
2023/09/12 08:55:15;;;;;;;56.85;37.13;;;20.70;88.20;;;;;;4950939;28;20063;-74
2023/09/12 08:57:43;;;;;;;54.88;37.13;;;20.80;87.70;;;;;;4948447;28;20063;-74
2023/09/12 09:00:14;;;;;;;55.53;39.10;;;21.00;88.00;;;;;;4947990;28;20027;-73
2023/09/12 09:02:43;;;;;;;54.15;36.95;;;21.00;87.10;;;;;;4968612;28;20065;-74
2023/09/12 09:05:10;;;;;;;47.72;33.25;;;21.00;87.30;;;;;;4946472;28;20034;-74
2023/09/12 09:07:40;;;;;;;44.90;30.88;;;21.10;87.30;;;;;;4975658;28;20589;-73
2023/09/12 09:10:08;;;;;;;48.40;31.13;;;21.20;86.40;;;;;;4964043;28;20027;-75
2023/09/12 09:12:35;;;;;;;42.05;30.08;;;21.10;86.10;;;;;;4963558;28;20508;-73
2023/09/12 09:15:21;;;;;;;43.05;30.50;;;21.10;86.70;;;;;;4963483;28;20030;-73
2023/09/12 09:17:47;;;;;;;41.67;29.92;;;21.10;86.60;;;;;;4966130;28;20114;-73
2023/09/12 09:20:22;;;;;;;45.30;30.60;;;21.10;86.70;;;;;;4958961;28;20031;-74
2023/09/12 09:23:09;;;;;;;54.00;34.35;;;21.10;86.30;;;;;;4955319;28;20043;-74
2023/09/12 09:25:39;;;;;;;49.03;33.83;;;21.00;86.40;;;;;;4952543;28;20088;-74
2023/09/12 09:28:05;;;;;;;42.85;30.85;;;21.10;86.80;;;;;;4944269;28;20067;-74
2023/09/12 09:30:42;;;;;;;45.50;31.65;;;21.10;87.10;;;;;;4942048;28;20031;-73
2023/09/12 09:33:08;;;;;;;48.65;33.88;;;21.10;86.60;;;;;;4939521;28;20027;-73
2023/09/12 09:35:35;;;;;;;48.38;35.67;;;21.00;86.90;;;;;;4942910;28;20035;-73
2023/09/12 09:38:02;;;;;;;49.53;34.95;;;21.00;86.90;;;;;;4943119;28;20047;-75
2023/09/12 09:40:28;;;;;;;52.97;34.83;;;21.00;86.80;;;;;;4940024;28;20343;-74
2023/09/12 09:43:01;;;;;;;45.55;32.20;;;21.10;87.20;;;;;;4945793;28;20043;-74
2023/09/12 09:45:31;;;;;;;47.55;33.97;;;21.20;86.90;;;;;;4952845;28;20126;-75
2023/09/12 09:47:59;;;;;;;46.63;33.38;;;21.30;86.40;;;;;;4949139;28;20070;-75
2023/09/12 09:50:25;;;;;;;48.40;35.10;;;21.60;86.30;;;;;;4944236;28;20035;-74
2023/09/12 09:52:56;;;;;;;49.55;34.20;;;21.70;85.40;;;;;;4947532;28;20482;-76
2023/09/12 09:55:22;;;;;;;45.85;33.05;;;21.80;84.60;;;;;;4939409;28;20037;-76
2023/09/12 09:57:48;;;;;;;49.28;34.85;;;21.80;84.30;;;;;;4941682;28;20074;-76
2023/09/12 10:00:14;;;;;;;54.30;36.85;;;21.80;85.10;;;;;;4947548;28;20027;-75
2023/09/12 10:02:42;;;;;;;40.15;32.75;;;21.80;84.20;;;;;;4956486;28;20489;-75
2023/09/12 10:05:10;;;;;;;45.10;34.85;;;21.70;84.70;;;;;;4969803;28;20083;-76
2023/09/12 10:07:38;;;;;;;49.50;34.28;;;21.80;85.00;;;;;;4961758;28;20107;-75
2023/09/12 10:10:04;;;;;;;51.40;35.72;;;22.00;84.30;;;;;;4960925;28;20034;-76
2023/09/12 10:12:35;;;;;;;46.92;36.72;;;22.00;83.90;;;;;;4968560;28;20035;-75
2023/09/12 10:15:04;;;;;;;47.88;35.33;;;22.00;84.50;;;;;;4958541;28;20481;-75
2023/09/12 10:17:36;;;;;;;52.40;39.67;;;22.10;84.10;;;;;;4966005;28;20031;-74
2023/09/12 10:20:09;;;;;;;47.90;36.33;;;22.20;84.30;;;;;;4966485;28;20330;-74
2023/09/12 10:22:43;;;;;;;47.03;36.78;;;22.50;83.80;;;;;;4966839;28;20116;-75
2023/09/12 10:25:09;;;;;;;47.33;36.30;;;22.70;82.10;;;;;;4957827;28;20036;-74
2023/09/12 10:27:34;;;;;;;48.38;35.70;;;22.90;80.50;;;;;;4967286;28;20120;-75
2023/09/12 10:30:02;;;;;;;43.60;34.88;;;23.10;80.90;;;;;;4952123;28;21029;-76
2023/09/12 10:32:30;;;;;;;43.38;34.70;;;23.10;80.60;;;;;;4956697;28;20473;-76
2023/09/12 10:34:58;;;;;;;47.05;35.80;;;23.30;80.90;;;;;;4957186;28;20038;-76
2023/09/12 10:37:25;;;;;;;42.92;36.08;;;23.50;80.30;;;;;;4949395;28;20039;-75
2023/09/12 10:39:53;;;;;;;50.38;36.13;;;23.60;79.50;;;;;;4951141;28;20030;-76
2023/09/12 10:42:20;;;;;;;42.53;35.65;;;23.80;78.80;;;;;;4950121;28;20547;-77
2023/09/12 10:44:46;;;;;;;43.50;34.22;;;23.90;78.70;;;;;;4951601;28;20030;-77
2023/09/12 10:47:13;;;;;;;49.40;39.13;;;24.00;78.80;;;;;;4951904;28;20497;-76
2023/09/12 10:49:39;;;;;;;45.50;37.33;;;24.10;77.70;;;;;;4949930;28;20121;-76
2023/09/12 10:52:05;;;;;;;49.95;41.53;;;24.20;77.30;;;;;;4946459;28;21689;-74
2023/09/12 10:54:40;;;;;;;52.63;42.72;;;24.10;77.50;;;;;;4946558;28;20074;-76
2023/09/12 10:57:08;;;;;;;48.78;40.30;;;24.20;77.30;;;;;;4940099;28;20121;-76
2023/09/12 10:59:37;;;;;;;50.67;41.22;;;24.40;77.50;;;;;;4938202;28;20067;-76
2023/09/12 11:02:43;;;;;;;47.10;40.60;;;24.10;77.40;;;;;;4938606;28;20071;-77
2023/09/12 11:05:27;;;;;;;52.45;41.47;;;24.10;78.30;;;;;;4973514;28;20066;-74
2023/09/12 11:07:59;;;;;;;;;;;24.50;77.00;;;;;;4976425;28;20057;-75
2023/09/12 11:10:26;;;;;;;52.42;41.70;;;24.40;76.10;;;;;;4950890;28;20034;-73
2023/09/12 11:12:54;;;;;;;52.90;41.63;;;24.40;76.70;;;;;;4946687;28;20375;-73
2023/09/12 11:15:22;;;;;;;50.80;41.90;;;24.20;76.70;;;;;;4957941;28;20038;-72
2023/09/12 11:18:07;;;;;;;53.10;42.58;;;23.90;77.40;;;;;;4949159;28;20028;-77
2023/09/12 11:20:53;;;;;;;51.92;44.22;;;24.10;78.20;;;;;;4941698;28;20036;-73
2023/09/12 11:23:19;;;;;;;52.15;43.63;;;24.10;77.90;;;;;;4935367;28;20592;-72
2023/09/12 11:25:44;;;;;;;54.20;44.15;;;24.30;77.40;;;;;;4952186;28;20129;-75
2023/09/12 11:28:10;;;;;;;56.70;46.22;;;24.50;77.20;;;;;;4944130;28;20079;-75
2023/09/12 11:30:36;;;;;;;53.22;44.70;;;24.70;76.50;;;;;;4953201;28;20032;-75
2023/09/12 11:33:09;;;;;;;54.38;44.63;;;24.60;76.70;;;;;;4940494;28;20044;-78
2023/09/12 11:35:40;;;;;;;53.13;44.00;;;24.50;76.20;;;;;;4953125;28;20031;-78
2023/09/12 11:38:10;;;;;;;53.70;45.85;;;24.30;75.40;;;;;;4946107;28;20056;-78
2023/09/12 11:40:35;;;;;;;55.25;45.58;;;23.90;76.70;;;;;;4934029;28;20716;-74
2023/09/12 11:43:01;;;;;;;54.92;45.03;;;24.00;76.40;;;;;;4941288;28;20059;-75
2023/09/12 11:45:27;;;;;;;51.05;45.50;;;23.80;76.50;;;;;;4962376;28;20434;-76
2023/09/12 11:47:54;;;;;;;52.05;45.88;;;23.60;77.60;;;;;;4940949;28;20063;-76
2023/09/12 11:50:26;;;;;;;51.85;46.20;;;23.60;77.90;;;;;;4939897;28;20035;-76
2023/09/12 11:53:03;;;;;;;51.58;45.92;;;23.70;77.80;;;;;;4939733;28;20043;-75
2023/09/12 11:55:32;;;;;;;51.90;44.15;;;23.70;77.80;;;;;;4939691;28;20114;-79
2023/09/12 11:57:57;;;;;;;47.70;42.22;;;23.90;77.60;;;;;;4970352;28;20052;-77
2023/09/12 12:00:26;;;;;;;45.00;40.17;;;24.30;77.00;;;;;;4964070;28;20113;-75
2023/09/12 12:02:52;;;;;;;46.00;38.60;;;24.60;75.60;;;;;;4951927;28;20173;-78
2023/09/12 12:05:18;;;;;;;45.70;39.20;;;24.80;73.70;;;;;;4942680;28;20564;-74
2023/09/12 12:07:46;;;;;;;40.92;35.97;;;25.00;74.10;;;;;;4993077;28;20043;-75
2023/09/12 12:10:13;;;;;;;47.55;39.80;;;24.90;73.60;;;;;;5043235;28;20014;-74
2023/09/12 12:12:38;;;;;;;46.40;41.17;;;25.00;73.90;;;;;;5006542;28;20035;-74
2023/09/12 12:15:11;;;;;;;45.53;40.28;;;25.00;73.30;;;;;;4965683;28;20164;-75
2023/09/12 12:17:40;;;;;;;44.97;39.40;;;24.40;74.20;;;;;;4958211;28;20043;-74
2023/09/12 12:20:10;;;;;;;43.80;39.10;;;24.30;75.80;;;;;;4997888;28;20027;-75
2023/09/12 12:22:39;;;;;;;41.38;35.88;;;24.50;75.30;;;;;;4963756;28;20039;-73
2023/09/12 12:25:12;;;;;;;39.97;35.33;;;24.70;74.90;;;;;;4966494;28;20031;-75
2023/09/12 12:27:39;;;;;;;36.67;32.38;;;25.00;74.40;;;;;;4952174;28;20052;-75
2023/09/12 12:30:08;;;;;;;38.50;34.17;;;25.20;74.10;;;;;;4943294;28;20203;-73